sensor_id;sensor_type;location;lat;lon;timestamp;P1;durP1;ratioP1;P2;durP2;ratioP2
7531;SDS011;3807;49.030;8.714;2023-03-09T00:00:39;3.30;;;1.27;;
7531;SDS011;3807;49.030;8.714;2023-03-09T00:03:04;3.60;;;1.50;;
7531;SDS011;3807;49.030;8.714;2023-03-09T00:05:30;8.57;;;1.60;;
7531;SDS011;3807;49.030;8.714;2023-03-09T00:07:55;9.63;;;1.60;;
7531;SDS011;3807;49.030;8.714;2023-03-09T00:10:21;4.97;;;1.70;;
7531;SDS011;3807;49.030;8.714;2023-03-09T00:12:47;3.23;;;1.30;;
7531;SDS011;3807;49.030;8.714;2023-03-09T00:15:12;1.00;;;0.90;;
7531;SDS011;3807;49.030;8.714;2023-03-09T00:17:38;2.30;;;0.90;;
7531;SDS011;3807;49.030;8.714;2023-03-09T00:20:04;1.20;;;0.70;;
7531;SDS011;3807;49.030;8.714;2023-03-09T00:22:46;0.93;;;0.83;;
7531;SDS011;3807;49.030;8.714;2023-03-09T00:25:13;1.57;;;0.90;;
7531;SDS011;3807;49.030;8.714;2023-03-09T00:27:39;1.17;;;0.83;;
7531;SDS011;3807;49.030;8.714;2023-03-09T00:30:07;0.90;;;0.90;;
7531;SDS011;3807;49.030;8.714;2023-03-09T00:32:35;1.50;;;1.00;;
7531;SDS011;3807;49.030;8.714;2023-03-09T00:35:01;4.53;;;1.07;;
7531;SDS011;3807;49.030;8.714;2023-03-09T00:37:26;1.43;;;1.00;;
7531;SDS011;3807;49.030;8.714;2023-03-09T00:39:51;2.57;;;1.10;;
7531;SDS011;3807;49.030;8.714;2023-03-09T00:42:17;1.60;;;0.97;;
7531;SDS011;3807;49.030;8.714;2023-03-09T00:44:42;2.83;;;0.93;;
7531;SDS011;3807;49.030;8.714;2023-03-09T00:47:07;2.57;;;0.90;;
7531;SDS011;3807;49.030;8.714;2023-03-09T00:49:33;1.33;;;0.90;;
7531;SDS011;3807;49.030;8.714;2023-03-09T00:51:58;2.93;;;0.80;;
7531;SDS011;3807;49.030;8.714;2023-03-09T00:54:24;2.53;;;0.90;;
7531;SDS011;3807;49.030;8.714;2023-03-09T00:56:49;3.40;;;1.10;;
7531;SDS011;3807;49.030;8.714;2023-03-09T00:59:14;1.70;;;0.93;;
7531;SDS011;3807;49.030;8.714;2023-03-09T01:01:40;1.53;;;1.20;;
7531;SDS011;3807;49.030;8.714;2023-03-09T01:04:05;4.37;;;1.40;;
7531;SDS011;3807;49.030;8.714;2023-03-09T01:06:31;1.23;;;1.13;;
7531;SDS011;3807;49.030;8.714;2023-03-09T01:08:56;2.70;;;1.30;;
7531;SDS011;3807;49.030;8.714;2023-03-09T01:11:22;1.73;;;1.13;;
7531;SDS011;3807;49.030;8.714;2023-03-09T01:13:49;1.57;;;1.30;;
7531;SDS011;3807;49.030;8.714;2023-03-09T01:16:16;2.77;;;1.20;;
7531;SDS011;3807;49.030;8.714;2023-03-09T01:18:41;2.30;;;1.30;;
7531;SDS011;3807;49.030;8.714;2023-03-09T01:21:06;1.93;;;1.30;;
7531;SDS011;3807;49.030;8.714;2023-03-09T01:23:32;3.23;;;0.87;;
7531;SDS011;3807;49.030;8.714;2023-03-09T01:25:58;2.20;;;1.00;;
7531;SDS011;3807;49.030;8.714;2023-03-09T01:28:23;5.87;;;1.40;;
7531;SDS011;3807;49.030;8.714;2023-03-09T01:30:49;1.33;;;1.00;;
7531;SDS011;3807;49.030;8.714;2023-03-09T01:33:14;2.93;;;1.20;;
7531;SDS011;3807;49.030;8.714;2023-03-09T01:35:40;2.20;;;1.03;;
7531;SDS011;3807;49.030;8.714;2023-03-09T01:38:05;1.10;;;1.00;;
7531;SDS011;3807;49.030;8.714;2023-03-09T01:40:31;3.30;;;1.20;;
7531;SDS011;3807;49.030;8.714;2023-03-09T01:43:00;1.40;;;1.03;;
7531;SDS011;3807;49.030;8.714;2023-03-09T01:47:52;3.63;;;1.43;;
7531;SDS011;3807;49.030;8.714;2023-03-09T01:50:23;3.37;;;1.07;;
7531;SDS011;3807;49.030;8.714;2023-03-09T01:52:53;1.90;;;1.00;;
7531;SDS011;3807;49.030;8.714;2023-03-09T01:55:23;1.73;;;0.70;;
7531;SDS011;3807;49.030;8.714;2023-03-09T01:57:57;3.13;;;0.87;;
7531;SDS011;3807;49.030;8.714;2023-03-09T02:00:26;0.90;;;0.70;;
7531;SDS011;3807;49.030;8.714;2023-03-09T02:02:53;2.80;;;1.00;;
7531;SDS011;3807;49.030;8.714;2023-03-09T02:05:33;0.93;;;0.80;;
7531;SDS011;3807;49.030;8.714;2023-03-09T02:08:10;2.80;;;1.10;;
7531;SDS011;3807;49.030;8.714;2023-03-09T02:10:38;2.07;;;0.90;;
7531;SDS011;3807;49.030;8.714;2023-03-09T02:13:13;1.13;;;0.90;;
7531;SDS011;3807;49.030;8.714;2023-03-09T02:15:41;1.93;;;0.70;;
7531;SDS011;3807;49.030;8.714;2023-03-09T02:18:07;3.33;;;0.93;;
7531;SDS011;3807;49.030;8.714;2023-03-09T02:20:54;1.10;;;0.97;;
7531;SDS011;3807;49.030;8.714;2023-03-09T02:23:37;2.77;;;1.00;;
7531;SDS011;3807;49.030;8.714;2023-03-09T02:26:14;2.63;;;0.70;;
7531;SDS011;3807;49.030;8.714;2023-03-09T02:28:42;0.73;;;0.70;;
7531;SDS011;3807;49.030;8.714;2023-03-09T02:31:07;1.00;;;0.83;;
7531;SDS011;3807;49.030;8.714;2023-03-09T02:33:34;3.90;;;1.00;;
7531;SDS011;3807;49.030;8.714;2023-03-09T02:36:00;0.77;;;0.77;;
7531;SDS011;3807;49.030;8.714;2023-03-09T02:38:26;1.33;;;0.90;;
7531;SDS011;3807;49.030;8.714;2023-03-09T02:40:52;1.87;;;0.90;;
7531;SDS011;3807;49.030;8.714;2023-03-09T02:43:22;0.67;;;0.67;;
7531;SDS011;3807;49.030;8.714;2023-03-09T02:45:51;2.50;;;0.97;;
7531;SDS011;3807;49.030;8.714;2023-03-09T02:48:17;0.83;;;0.70;;
7531;SDS011;3807;49.030;8.714;2023-03-09T02:50:42;1.17;;;0.70;;
7531;SDS011;3807;49.030;8.714;2023-03-09T02:53:08;0.73;;;0.73;;
7531;SDS011;3807;49.030;8.714;2023-03-09T02:55:34;0.87;;;0.60;;
7531;SDS011;3807;49.030;8.714;2023-03-09T02:57:59;1.00;;;0.90;;
7531;SDS011;3807;49.030;8.714;2023-03-09T03:00:25;0.83;;;0.83;;
7531;SDS011;3807;49.030;8.714;2023-03-09T03:02:51;1.70;;;0.90;;
7531;SDS011;3807;49.030;8.714;2023-03-09T03:05:16;2.40;;;0.90;;
7531;SDS011;3807;49.030;8.714;2023-03-09T03:07:42;0.67;;;0.67;;
7531;SDS011;3807;49.030;8.714;2023-03-09T03:10:08;0.87;;;0.70;;
7531;SDS011;3807;49.030;8.714;2023-03-09T03:12:34;2.40;;;0.70;;
7531;SDS011;3807;49.030;8.714;2023-03-09T03:14:59;1.60;;;0.70;;
7531;SDS011;3807;49.030;8.714;2023-03-09T03:17:24;1.60;;;1.10;;
7531;SDS011;3807;49.030;8.714;2023-03-09T03:19:50;0.70;;;0.60;;
7531;SDS011;3807;49.030;8.714;2023-03-09T03:22:17;1.03;;;0.80;;
7531;SDS011;3807;49.030;8.714;2023-03-09T03:24:42;1.33;;;0.93;;
7531;SDS011;3807;49.030;8.714;2023-03-09T03:27:07;1.57;;;0.90;;
7531;SDS011;3807;49.030;8.714;2023-03-09T03:29:33;1.20;;;0.77;;
7531;SDS011;3807;49.030;8.714;2023-03-09T03:31:58;0.63;;;0.63;;
7531;SDS011;3807;49.030;8.714;2023-03-09T03:34:24;0.97;;;0.87;;
7531;SDS011;3807;49.030;8.714;2023-03-09T03:36:49;0.73;;;0.73;;
7531;SDS011;3807;49.030;8.714;2023-03-09T03:39:15;1.20;;;0.83;;
7531;SDS011;3807;49.030;8.714;2023-03-09T03:41:40;1.17;;;0.80;;
7531;SDS011;3807;49.030;8.714;2023-03-09T03:44:06;2.67;;;0.80;;
7531;SDS011;3807;49.030;8.714;2023-03-09T03:46:31;0.77;;;0.57;;
7531;SDS011;3807;49.030;8.714;2023-03-09T03:48:56;3.03;;;0.70;;
7531;SDS011;3807;49.030;8.714;2023-03-09T03:51:22;0.70;;;0.70;;
7531;SDS011;3807;49.030;8.714;2023-03-09T03:53:48;1.90;;;0.97;;
7531;SDS011;3807;49.030;8.714;2023-03-09T03:56:13;1.07;;;0.90;;
7531;SDS011;3807;49.030;8.714;2023-03-09T03:58:39;1.53;;;0.90;;
7531;SDS011;3807;49.030;8.714;2023-03-09T04:01:04;1.07;;;0.87;;
7531;SDS011;3807;49.030;8.714;2023-03-09T04:03:30;5.87;;;1.27;;
7531;SDS011;3807;49.030;8.714;2023-03-09T04:05:55;1.23;;;0.93;;
7531;SDS011;3807;49.030;8.714;2023-03-09T04:08:21;1.17;;;0.80;;
7531;SDS011;3807;49.030;8.714;2023-03-09T04:10:46;3.37;;;1.10;;
7531;SDS011;3807;49.030;8.714;2023-03-09T04:13:12;1.40;;;0.90;;
7531;SDS011;3807;49.030;8.714;2023-03-09T04:15:37;1.37;;;0.97;;
7531;SDS011;3807;49.030;8.714;2023-03-09T04:18:03;4.13;;;1.00;;
7531;SDS011;3807;49.030;8.714;2023-03-09T04:20:28;2.83;;;1.20;;
7531;SDS011;3807;49.030;8.714;2023-03-09T04:22:54;0.90;;;0.80;;
7531;SDS011;3807;49.030;8.714;2023-03-09T04:25:19;1.33;;;1.20;;
7531;SDS011;3807;49.030;8.714;2023-03-09T04:27:44;4.37;;;1.23;;
7531;SDS011;3807;49.030;8.714;2023-03-09T04:30:10;3.63;;;0.80;;
7531;SDS011;3807;49.030;8.714;2023-03-09T04:32:36;2.57;;;1.30;;
7531;SDS011;3807;49.030;8.714;2023-03-09T04:35:02;2.90;;;0.97;;
7531;SDS011;3807;49.030;8.714;2023-03-09T04:37:28;4.47;;;1.00;;
7531;SDS011;3807;49.030;8.714;2023-03-09T04:39:53;3.33;;;1.30;;
7531;SDS011;3807;49.030;8.714;2023-03-09T04:42:18;3.27;;;1.10;;
7531;SDS011;3807;49.030;8.714;2023-03-09T04:44:43;2.53;;;1.10;;
7531;SDS011;3807;49.030;8.714;2023-03-09T04:47:12;4.20;;;1.50;;
7531;SDS011;3807;49.030;8.714;2023-03-09T04:49:39;7.97;;;1.70;;
7531;SDS011;3807;49.030;8.714;2023-03-09T04:52:05;8.27;;;2.50;;
7531;SDS011;3807;49.030;8.714;2023-03-09T04:54:31;3.23;;;1.27;;
7531;SDS011;3807;49.030;8.714;2023-03-09T04:56:56;5.17;;;1.23;;
7531;SDS011;3807;49.030;8.714;2023-03-09T04:59:22;4.77;;;1.27;;
7531;SDS011;3807;49.030;8.714;2023-03-09T05:01:47;4.83;;;1.40;;
7531;SDS011;3807;49.030;8.714;2023-03-09T05:04:13;4.13;;;1.27;;
7531;SDS011;3807;49.030;8.714;2023-03-09T05:06:38;4.97;;;1.10;;
7531;SDS011;3807;49.030;8.714;2023-03-09T05:09:03;2.50;;;1.40;;
7531;SDS011;3807;49.030;8.714;2023-03-09T05:11:30;3.00;;;1.60;;
7531;SDS011;3807;49.030;8.714;2023-03-09T05:13:56;4.13;;;1.60;;
7531;SDS011;3807;49.030;8.714;2023-03-09T05:16:21;5.40;;;1.93;;
7531;SDS011;3807;49.030;8.714;2023-03-09T05:18:50;2.30;;;1.43;;
7531;SDS011;3807;49.030;8.714;2023-03-09T05:21:16;8.33;;;1.97;;
7531;SDS011;3807;49.030;8.714;2023-03-09T05:23:42;1.93;;;0.90;;
7531;SDS011;3807;49.030;8.714;2023-03-09T05:26:07;1.73;;;0.90;;
7531;SDS011;3807;49.030;8.714;2023-03-09T05:28:37;3.93;;;1.90;;
7531;SDS011;3807;49.030;8.714;2023-03-09T05:31:09;5.00;;;1.90;;
7531;SDS011;3807;49.030;8.714;2023-03-09T05:33:37;5.37;;;0.87;;
7531;SDS011;3807;49.030;8.714;2023-03-09T05:36:03;4.53;;;1.07;;
7531;SDS011;3807;49.030;8.714;2023-03-09T05:38:38;4.13;;;1.33;;
7531;SDS011;3807;49.030;8.714;2023-03-09T05:41:04;9.73;;;2.10;;
7531;SDS011;3807;49.030;8.714;2023-03-09T05:43:30;5.90;;;1.57;;
7531;SDS011;3807;49.030;8.714;2023-03-09T05:45:55;3.60;;;1.43;;
7531;SDS011;3807;49.030;8.714;2023-03-09T05:48:21;9.47;;;2.10;;
7531;SDS011;3807;49.030;8.714;2023-03-09T05:50:46;4.77;;;1.53;;
7531;SDS011;3807;49.030;8.714;2023-03-09T05:53:11;5.00;;;1.97;;
7531;SDS011;3807;49.030;8.714;2023-03-09T05:55:37;2.50;;;1.13;;
7531;SDS011;3807;49.030;8.714;2023-03-09T05:58:02;3.13;;;1.53;;
7531;SDS011;3807;49.030;8.714;2023-03-09T06:00:28;6.30;;;2.00;;
7531;SDS011;3807;49.030;8.714;2023-03-09T06:02:53;6.63;;;2.10;;
7531;SDS011;3807;49.030;8.714;2023-03-09T06:05:18;7.67;;;1.90;;
7531;SDS011;3807;49.030;8.714;2023-03-09T06:07:44;5.97;;;1.63;;
7531;SDS011;3807;49.030;8.714;2023-03-09T06:10:10;5.03;;;1.47;;
7531;SDS011;3807;49.030;8.714;2023-03-09T06:12:36;10.70;;;1.70;;
7531;SDS011;3807;49.030;8.714;2023-03-09T06:15:01;8.33;;;1.77;;
7531;SDS011;3807;49.030;8.714;2023-03-09T06:17:27;7.37;;;1.70;;
7531;SDS011;3807;49.030;8.714;2023-03-09T06:19:52;5.53;;;1.93;;
7531;SDS011;3807;49.030;8.714;2023-03-09T06:22:18;3.87;;;1.27;;
7531;SDS011;3807;49.030;8.714;2023-03-09T06:24:44;7.00;;;2.00;;
7531;SDS011;3807;49.030;8.714;2023-03-09T06:27:09;6.67;;;2.13;;
7531;SDS011;3807;49.030;8.714;2023-03-09T06:29:34;3.73;;;1.30;;
7531;SDS011;3807;49.030;8.714;2023-03-09T06:32:00;6.03;;;1.80;;
7531;SDS011;3807;49.030;8.714;2023-03-09T06:34:28;8.17;;;1.80;;
7531;SDS011;3807;49.030;8.714;2023-03-09T06:36:54;3.67;;;1.37;;
7531;SDS011;3807;49.030;8.714;2023-03-09T06:39:19;4.60;;;1.90;;
7531;SDS011;3807;49.030;8.714;2023-03-09T06:41:45;6.77;;;1.53;;
7531;SDS011;3807;49.030;8.714;2023-03-09T06:44:11;10.00;;;2.27;;
7531;SDS011;3807;49.030;8.714;2023-03-09T06:46:36;11.13;;;1.90;;
7531;SDS011;3807;49.030;8.714;2023-03-09T06:49:02;6.07;;;1.80;;
7531;SDS011;3807;49.030;8.714;2023-03-09T06:51:27;5.00;;;1.70;;
7531;SDS011;3807;49.030;8.714;2023-03-09T06:53:53;5.00;;;1.70;;
7531;SDS011;3807;49.030;8.714;2023-03-09T06:56:18;6.27;;;1.90;;
7531;SDS011;3807;49.030;8.714;2023-03-09T06:58:43;6.17;;;1.67;;
7531;SDS011;3807;49.030;8.714;2023-03-09T07:01:09;6.43;;;1.50;;
7531;SDS011;3807;49.030;8.714;2023-03-09T07:03:37;5.50;;;1.90;;
7531;SDS011;3807;49.030;8.714;2023-03-09T07:06:03;8.33;;;2.37;;
7531;SDS011;3807;49.030;8.714;2023-03-09T07:08:29;4.93;;;1.70;;
7531;SDS011;3807;49.030;8.714;2023-03-09T07:10:55;8.57;;;2.03;;
7531;SDS011;3807;49.030;8.714;2023-03-09T07:13:20;8.33;;;2.03;;
7531;SDS011;3807;49.030;8.714;2023-03-09T07:15:46;13.20;;;2.23;;
7531;SDS011;3807;49.030;8.714;2023-03-09T07:18:11;6.97;;;1.93;;
7531;SDS011;3807;49.030;8.714;2023-03-09T07:20:37;11.00;;;1.63;;
7531;SDS011;3807;49.030;8.714;2023-03-09T07:23:04;5.97;;;1.37;;
7531;SDS011;3807;49.030;8.714;2023-03-09T07:25:29;5.70;;;1.60;;
7531;SDS011;3807;49.030;8.714;2023-03-09T07:27:59;9.30;;;1.73;;
7531;SDS011;3807;49.030;8.714;2023-03-09T07:30:27;5.07;;;1.93;;
7531;SDS011;3807;49.030;8.714;2023-03-09T07:32:55;8.00;;;1.90;;
7531;SDS011;3807;49.030;8.714;2023-03-09T07:35:21;6.33;;;1.67;;
7531;SDS011;3807;49.030;8.714;2023-03-09T07:37:46;6.90;;;1.77;;
7531;SDS011;3807;49.030;8.714;2023-03-09T07:40:11;4.80;;;1.80;;
7531;SDS011;3807;49.030;8.714;2023-03-09T07:42:37;6.97;;;1.90;;
7531;SDS011;3807;49.030;8.714;2023-03-09T07:45:03;6.77;;;1.97;;
7531;SDS011;3807;49.030;8.714;2023-03-09T07:47:30;2.57;;;1.27;;
7531;SDS011;3807;49.030;8.714;2023-03-09T07:49:56;6.33;;;1.87;;
7531;SDS011;3807;49.030;8.714;2023-03-09T07:52:22;9.13;;;1.70;;
7531;SDS011;3807;49.030;8.714;2023-03-09T07:54:51;5.50;;;1.60;;
7531;SDS011;3807;49.030;8.714;2023-03-09T07:57:17;7.40;;;1.90;;
7531;SDS011;3807;49.030;8.714;2023-03-09T07:59:44;9.27;;;1.93;;
7531;SDS011;3807;49.030;8.714;2023-03-09T08:02:09;5.07;;;1.53;;
7531;SDS011;3807;49.030;8.714;2023-03-09T08:04:35;3.37;;;1.13;;
7531;SDS011;3807;49.030;8.714;2023-03-09T08:07:00;6.63;;;1.90;;
7531;SDS011;3807;49.030;8.714;2023-03-09T08:09:25;4.57;;;1.50;;
7531;SDS011;3807;49.030;8.714;2023-03-09T08:11:52;8.27;;;2.23;;
7531;SDS011;3807;49.030;8.714;2023-03-09T08:14:18;3.87;;;1.57;;
7531;SDS011;3807;49.030;8.714;2023-03-09T08:16:43;4.50;;;1.60;;
7531;SDS011;3807;49.030;8.714;2023-03-09T08:19:09;6.00;;;1.93;;
7531;SDS011;3807;49.030;8.714;2023-03-09T08:21:34;11.37;;;1.97;;
7531;SDS011;3807;49.030;8.714;2023-03-09T08:23:59;7.17;;;2.30;;
7531;SDS011;3807;49.030;8.714;2023-03-09T08:26:25;7.83;;;1.70;;
7531;SDS011;3807;49.030;8.714;2023-03-09T08:28:50;7.93;;;2.13;;
7531;SDS011;3807;49.030;8.714;2023-03-09T08:31:16;9.10;;;2.33;;
7531;SDS011;3807;49.030;8.714;2023-03-09T08:33:42;9.47;;;2.23;;
7531;SDS011;3807;49.030;8.714;2023-03-09T08:36:15;11.33;;;3.07;;
7531;SDS011;3807;49.030;8.714;2023-03-09T08:38:42;6.27;;;2.03;;
7531;SDS011;3807;49.030;8.714;2023-03-09T08:41:08;12.13;;;2.33;;
7531;SDS011;3807;49.030;8.714;2023-03-09T08:43:33;3.70;;;1.47;;
7531;SDS011;3807;49.030;8.714;2023-03-09T08:45:59;5.63;;;1.73;;
7531;SDS011;3807;49.030;8.714;2023-03-09T08:48:24;6.20;;;1.50;;
7531;SDS011;3807;49.030;8.714;2023-03-09T08:50:50;5.60;;;1.50;;
7531;SDS011;3807;49.030;8.714;2023-03-09T08:53:15;5.57;;;1.80;;
7531;SDS011;3807;49.030;8.714;2023-03-09T08:55:43;5.57;;;1.90;;
7531;SDS011;3807;49.030;8.714;2023-03-09T08:58:08;4.57;;;2.10;;
7531;SDS011;3807;49.030;8.714;2023-03-09T09:00:33;3.63;;;1.50;;
7531;SDS011;3807;49.030;8.714;2023-03-09T09:02:59;7.27;;;1.83;;
7531;SDS011;3807;49.030;8.714;2023-03-09T09:05:24;5.30;;;2.00;;
7531;SDS011;3807;49.030;8.714;2023-03-09T09:07:49;4.27;;;1.80;;
7531;SDS011;3807;49.030;8.714;2023-03-09T09:10:15;4.00;;;1.70;;
7531;SDS011;3807;49.030;8.714;2023-03-09T09:12:40;6.07;;;1.73;;
7531;SDS011;3807;49.030;8.714;2023-03-09T09:15:06;4.37;;;1.40;;
7531;SDS011;3807;49.030;8.714;2023-03-09T09:17:34;2.83;;;1.03;;
7531;SDS011;3807;49.030;8.714;2023-03-09T09:20:01;6.90;;;2.10;;
7531;SDS011;3807;49.030;8.714;2023-03-09T09:22:27;4.00;;;1.07;;
7531;SDS011;3807;49.030;8.714;2023-03-09T09:24:53;6.40;;;1.73;;
7531;SDS011;3807;49.030;8.714;2023-03-09T09:27:18;7.93;;;1.60;;
7531;SDS011;3807;49.030;8.714;2023-03-09T09:29:44;3.67;;;1.07;;
7531;SDS011;3807;49.030;8.714;2023-03-09T09:32:09;16.05;;;2.00;;
7531;SDS011;3807;49.030;8.714;2023-03-09T09:34:34;7.70;;;1.47;;
7531;SDS011;3807;49.030;8.714;2023-03-09T09:37:00;6.80;;;1.47;;
7531;SDS011;3807;49.030;8.714;2023-03-09T09:39:27;5.97;;;1.23;;
7531;SDS011;3807;49.030;8.714;2023-03-09T09:41:54;6.17;;;1.60;;
7531;SDS011;3807;49.030;8.714;2023-03-09T09:44:23;7.43;;;1.83;;
7531;SDS011;3807;49.030;8.714;2023-03-09T09:46:53;5.20;;;1.80;;
7531;SDS011;3807;49.030;8.714;2023-03-09T09:49:21;7.20;;;1.60;;
7531;SDS011;3807;49.030;8.714;2023-03-09T09:54:41;0.77;;;0.70;;
7531;SDS011;3807;49.030;8.714;2023-03-09T09:57:19;6.40;;;1.27;;
7531;SDS011;3807;49.030;8.714;2023-03-09T10:10:56;2.50;;;1.33;;
7531;SDS011;3807;49.030;8.714;2023-03-09T10:13:30;0.87;;;0.70;;
7531;SDS011;3807;49.030;8.714;2023-03-09T10:16:04;4.80;;;1.60;;
7531;SDS011;3807;49.030;8.714;2023-03-09T10:18:36;4.53;;;1.33;;
7531;SDS011;3807;49.030;8.714;2023-03-09T10:21:05;5.07;;;1.20;;
7531;SDS011;3807;49.030;8.714;2023-03-09T10:23:44;8.40;;;2.47;;
7531;SDS011;3807;49.030;8.714;2023-03-09T10:28:37;6.80;;;1.97;;
7531;SDS011;3807;49.030;8.714;2023-03-09T10:31:10;4.00;;;2.07;;
7531;SDS011;3807;49.030;8.714;2023-03-09T10:33:45;5.97;;;2.73;;
7531;SDS011;3807;49.030;8.714;2023-03-09T10:36:22;6.93;;;3.27;;
7531;SDS011;3807;49.030;8.714;2023-03-09T10:38:53;6.17;;;1.43;;
7531;SDS011;3807;49.030;8.714;2023-03-09T10:41:21;9.67;;;2.30;;
7531;SDS011;3807;49.030;8.714;2023-03-09T10:43:47;5.13;;;1.67;;
7531;SDS011;3807;49.030;8.714;2023-03-09T10:46:14;3.00;;;1.80;;
7531;SDS011;3807;49.030;8.714;2023-03-09T10:48:41;6.63;;;2.67;;
7531;SDS011;3807;49.030;8.714;2023-03-09T10:51:24;5.57;;;1.90;;
7531;SDS011;3807;49.030;8.714;2023-03-09T10:53:50;10.57;;;2.10;;
7531;SDS011;3807;49.030;8.714;2023-03-09T11:01:37;4.80;;;1.50;;
7531;SDS011;3807;49.030;8.714;2023-03-09T11:04:47;3.30;;;1.73;;
7531;SDS011;3807;49.030;8.714;2023-03-09T11:07:05;9.23;;;1.90;;
7531;SDS011;3807;49.030;8.714;2023-03-09T11:17:39;3.60;;;1.70;;
7531;SDS011;3807;49.030;8.714;2023-03-09T11:28:49;4.53;;;1.70;;
7531;SDS011;3807;49.030;8.714;2023-03-09T11:33:59;4.00;;;1.80;;
7531;SDS011;3807;49.030;8.714;2023-03-09T11:36:26;5.73;;;1.67;;
7531;SDS011;3807;49.030;8.714;2023-03-09T11:39:03;4.63;;;1.50;;
7531;SDS011;3807;49.030;8.714;2023-03-09T11:41:31;4.57;;;1.87;;
7531;SDS011;3807;49.030;8.714;2023-03-09T11:44:00;6.00;;;1.93;;
7531;SDS011;3807;49.030;8.714;2023-03-09T11:46:30;5.37;;;1.63;;
7531;SDS011;3807;49.030;8.714;2023-03-09T11:49:02;3.93;;;1.53;;
7531;SDS011;3807;49.030;8.714;2023-03-09T11:51:36;6.17;;;1.60;;
7531;SDS011;3807;49.030;8.714;2023-03-09T11:57:07;4.50;;;1.40;;
7531;SDS011;3807;49.030;8.714;2023-03-09T11:59:41;6.57;;;1.47;;
7531;SDS011;3807;49.030;8.714;2023-03-09T12:02:19;3.73;;;1.33;;
7531;SDS011;3807;49.030;8.714;2023-03-09T12:04:51;5.93;;;1.37;;
7531;SDS011;3807;49.030;8.714;2023-03-09T12:12:47;2.87;;;1.10;;
7531;SDS011;3807;49.030;8.714;2023-03-09T12:18:01;7.67;;;1.50;;
7531;SDS011;3807;49.030;8.714;2023-03-09T12:20:40;7.30;;;1.63;;
7531;SDS011;3807;49.030;8.714;2023-03-09T12:26:00;4.47;;;1.37;;
7531;SDS011;3807;49.030;8.714;2023-03-09T12:28:30;3.63;;;1.20;;
7531;SDS011;3807;49.030;8.714;2023-03-09T12:30:56;4.00;;;1.30;;
7531;SDS011;3807;49.030;8.714;2023-03-09T12:39:21;5.13;;;1.70;;
7531;SDS011;3807;49.030;8.714;2023-03-09T12:41:55;6.27;;;1.60;;
7531;SDS011;3807;49.030;8.714;2023-03-09T12:47:22;6.83;;;2.30;;
7531;SDS011;3807;49.030;8.714;2023-03-09T12:49:51;5.43;;;1.60;;
7531;SDS011;3807;49.030;8.714;2023-03-09T12:52:25;3.60;;;1.40;;
7531;SDS011;3807;49.030;8.714;2023-03-09T12:54:55;5.57;;;1.80;;
7531;SDS011;3807;49.030;8.714;2023-03-09T12:57:22;4.30;;;1.43;;
7531;SDS011;3807;49.030;8.714;2023-03-09T12:59:48;6.67;;;1.50;;
7531;SDS011;3807;49.030;8.714;2023-03-09T13:02:28;4.27;;;1.37;;
7531;SDS011;3807;49.030;8.714;2023-03-09T13:07:49;4.93;;;1.33;;
7531;SDS011;3807;49.030;8.714;2023-03-09T13:10:21;8.37;;;1.97;;
7531;SDS011;3807;49.030;8.714;2023-03-09T13:12:54;7.33;;;1.33;;
7531;SDS011;3807;49.030;8.714;2023-03-09T13:15:22;6.33;;;1.60;;
7531;SDS011;3807;49.030;8.714;2023-03-09T13:20:52;6.63;;;1.70;;
7531;SDS011;3807;49.030;8.714;2023-03-09T13:23:18;5.87;;;1.67;;
7531;SDS011;3807;49.030;8.714;2023-03-09T13:25:49;6.73;;;2.03;;
7531;SDS011;3807;49.030;8.714;2023-03-09T13:30:48;5.67;;;1.40;;
7531;SDS011;3807;49.030;8.714;2023-03-09T13:33:15;4.53;;;1.60;;
7531;SDS011;3807;49.030;8.714;2023-03-09T13:38:27;7.60;;;1.83;;
7531;SDS011;3807;49.030;8.714;2023-03-09T13:40:57;6.60;;;1.70;;
7531;SDS011;3807;49.030;8.714;2023-03-09T13:43:25;6.53;;;1.53;;
7531;SDS011;3807;49.030;8.714;2023-03-09T13:46:10;19.67;;;1.53;;
7531;SDS011;3807;49.030;8.714;2023-03-09T13:48:42;6.63;;;1.50;;
7531;SDS011;3807;49.030;8.714;2023-03-09T13:51:27;5.37;;;1.57;;
7531;SDS011;3807;49.030;8.714;2023-03-09T13:53:52;4.83;;;1.60;;
7531;SDS011;3807;49.030;8.714;2023-03-09T13:56:18;6.13;;;1.47;;
7531;SDS011;3807;49.030;8.714;2023-03-09T13:58:43;9.73;;;1.77;;
7531;SDS011;3807;49.030;8.714;2023-03-09T14:03:47;6.40;;;1.70;;
7531;SDS011;3807;49.030;8.714;2023-03-09T14:06:14;3.40;;;1.10;;
7531;SDS011;3807;49.030;8.714;2023-03-09T14:08:45;7.77;;;1.80;;
7531;SDS011;3807;49.030;8.714;2023-03-09T14:11:21;4.90;;;1.43;;
7531;SDS011;3807;49.030;8.714;2023-03-09T14:13:48;5.60;;;1.73;;
7531;SDS011;3807;49.030;8.714;2023-03-09T14:16:18;5.23;;;1.77;;
7531;SDS011;3807;49.030;8.714;2023-03-09T14:18:48;5.47;;;1.50;;
7531;SDS011;3807;49.030;8.714;2023-03-09T14:21:19;9.00;;;1.70;;
7531;SDS011;3807;49.030;8.714;2023-03-09T14:26:34;4.07;;;1.50;;
7531;SDS011;3807;49.030;8.714;2023-03-09T14:31:45;9.23;;;1.73;;
7531;SDS011;3807;49.030;8.714;2023-03-09T14:36:44;4.30;;;1.80;;
7531;SDS011;3807;49.030;8.714;2023-03-09T14:39:34;4.20;;;1.47;;
7531;SDS011;3807;49.030;8.714;2023-03-09T14:44:39;5.73;;;1.63;;
7531;SDS011;3807;49.030;8.714;2023-03-09T14:47:19;5.20;;;1.90;;
7531;SDS011;3807;49.030;8.714;2023-03-09T14:49:49;3.33;;;1.80;;
7531;SDS011;3807;49.030;8.714;2023-03-09T14:52:16;5.87;;;1.53;;
7531;SDS011;3807;49.030;8.714;2023-03-09T14:54:42;6.07;;;1.63;;
7531;SDS011;3807;49.030;8.714;2023-03-09T14:57:11;10.63;;;2.60;;
7531;SDS011;3807;49.030;8.714;2023-03-09T14:59:39;4.20;;;1.40;;
7531;SDS011;3807;49.030;8.714;2023-03-09T15:02:06;4.70;;;1.83;;
7531;SDS011;3807;49.030;8.714;2023-03-09T15:04:33;5.43;;;2.20;;
7531;SDS011;3807;49.030;8.714;2023-03-09T15:06:59;3.63;;;1.60;;
7531;SDS011;3807;49.030;8.714;2023-03-09T15:09:26;7.50;;;2.00;;
7531;SDS011;3807;49.030;8.714;2023-03-09T15:11:53;5.90;;;1.70;;
7531;SDS011;3807;49.030;8.714;2023-03-09T15:17:04;6.53;;;2.10;;
7531;SDS011;3807;49.030;8.714;2023-03-09T15:19:30;5.80;;;2.00;;
7531;SDS011;3807;49.030;8.714;2023-03-09T15:21:56;5.07;;;1.50;;
7531;SDS011;3807;49.030;8.714;2023-03-09T15:24:25;6.33;;;2.23;;
7531;SDS011;3807;49.030;8.714;2023-03-09T15:26:52;13.70;;;3.80;;
7531;SDS011;3807;49.030;8.714;2023-03-09T15:29:18;6.20;;;1.90;;
7531;SDS011;3807;49.030;8.714;2023-03-09T15:31:44;4.87;;;1.33;;
7531;SDS011;3807;49.030;8.714;2023-03-09T15:34:09;4.30;;;1.17;;
7531;SDS011;3807;49.030;8.714;2023-03-09T15:36:35;6.83;;;1.50;;
7531;SDS011;3807;49.030;8.714;2023-03-09T15:39:00;7.30;;;1.40;;
7531;SDS011;3807;49.030;8.714;2023-03-09T15:41:26;8.40;;;1.60;;
7531;SDS011;3807;49.030;8.714;2023-03-09T15:43:51;6.70;;;1.97;;
7531;SDS011;3807;49.030;8.714;2023-03-09T15:46:17;4.70;;;1.47;;
7531;SDS011;3807;49.030;8.714;2023-03-09T15:48:43;3.37;;;1.43;;
7531;SDS011;3807;49.030;8.714;2023-03-09T15:51:09;5.87;;;1.63;;
7531;SDS011;3807;49.030;8.714;2023-03-09T15:53:35;5.90;;;2.00;;
7531;SDS011;3807;49.030;8.714;2023-03-09T15:56:01;5.13;;;1.33;;
7531;SDS011;3807;49.030;8.714;2023-03-09T15:58:31;6.97;;;1.33;;
7531;SDS011;3807;49.030;8.714;2023-03-09T16:00:58;6.23;;;1.40;;
7531;SDS011;3807;49.030;8.714;2023-03-09T16:03:25;7.40;;;1.70;;
7531;SDS011;3807;49.030;8.714;2023-03-09T16:05:55;7.83;;;2.20;;
7531;SDS011;3807;49.030;8.714;2023-03-09T16:08:21;9.00;;;1.90;;
7531;SDS011;3807;49.030;8.714;2023-03-09T16:10:47;8.23;;;1.67;;
7531;SDS011;3807;49.030;8.714;2023-03-09T16:13:12;8.53;;;1.70;;
7531;SDS011;3807;49.030;8.714;2023-03-09T16:15:40;6.10;;;2.00;;
7531;SDS011;3807;49.030;8.714;2023-03-09T16:18:05;9.47;;;1.57;;
7531;SDS011;3807;49.030;8.714;2023-03-09T16:20:32;6.10;;;1.50;;
7531;SDS011;3807;49.030;8.714;2023-03-09T16:22:58;8.10;;;1.57;;
7531;SDS011;3807;49.030;8.714;2023-03-09T16:25:23;5.77;;;1.60;;
7531;SDS011;3807;49.030;8.714;2023-03-09T16:27:49;5.90;;;1.40;;
7531;SDS011;3807;49.030;8.714;2023-03-09T16:30:14;5.07;;;1.40;;
7531;SDS011;3807;49.030;8.714;2023-03-09T16:32:40;4.67;;;1.63;;
7531;SDS011;3807;49.030;8.714;2023-03-09T16:35:07;4.57;;;1.50;;
7531;SDS011;3807;49.030;8.714;2023-03-09T16:37:34;5.60;;;1.50;;
7531;SDS011;3807;49.030;8.714;2023-03-09T16:40:00;8.23;;;2.17;;
7531;SDS011;3807;49.030;8.714;2023-03-09T16:42:25;3.60;;;1.33;;
7531;SDS011;3807;49.030;8.714;2023-03-09T16:44:51;4.20;;;1.50;;
7531;SDS011;3807;49.030;8.714;2023-03-09T16:47:20;5.93;;;1.90;;
7531;SDS011;3807;49.030;8.714;2023-03-09T16:49:46;19.20;;;8.20;;